Cardedeu, Spain
Current Conditions -  °F | °C
As of 3:00 PM on Thursday 23 Oct 2014 (Local Time) from LELL Reporting Station
Clear Clear  
Wind Chill: 77°   Ceiling: Unl
Heat Index: 78°   Visibility: 6mi
Dew Point: 48°   Wind: 5mph
Humidity: 36%   Direction: 180°S
Pressure: 30.03"   Gusts: NA
Location:  41.64°N, 2.36°E
Report Text: LELL 231300Z 18004KT 130V250 CAVOK 25/09 Q1017
Loading
Personal Weather Stations






























Interactive Weather Map New forecast layout! Learn more

10-Day Weather Forecast

Advertisements
Track Severe Weather on mobile